sensor_id;sensor_type;location;lat;lon;timestamp;pressure;altitude;pressure_sealevel;temperature
41593;BMP180;28026;48.562;14.440;2023-04-25T00:02:05;93052.00;;;14.10
41593;BMP180;28026;48.562;14.440;2023-04-25T00:04:37;93041.00;;;14.00
41593;BMP180;28026;48.562;14.440;2023-04-25T00:07:08;93039.00;;;14.00
41593;BMP180;28026;48.562;14.440;2023-04-25T00:09:39;93040.00;;;14.00
41593;BMP180;28026;48.562;14.440;2023-04-25T00:12:10;93036.00;;;14.00
41593;BMP180;28026;48.562;14.440;2023-04-25T00:14:40;93037.00;;;14.00
41593;BMP180;28026;48.562;14.440;2023-04-25T00:17:11;93040.00;;;14.00
41593;BMP180;28026;48.562;14.440;2023-04-25T00:19:42;93034.00;;;14.00
41593;BMP180;28026;48.562;14.440;2023-04-25T00:22:15;93035.00;;;13.90
41593;BMP180;28026;48.562;14.440;2023-04-25T00:24:46;93047.00;;;13.90
41593;BMP180;28026;48.562;14.440;2023-04-25T00:27:16;93046.00;;;13.90
41593;BMP180;28026;48.562;14.440;2023-04-25T00:29:47;93052.00;;;13.90
41593;BMP180;28026;48.562;14.440;2023-04-25T00:32:18;93047.00;;;13.90
41593;BMP180;28026;48.562;14.440;2023-04-25T00:34:49;93046.00;;;13.80
41593;BMP180;28026;48.562;14.440;2023-04-25T00:37:20;93052.00;;;13.80
41593;BMP180;28026;48.562;14.440;2023-04-25T00:39:51;93054.00;;;13.90
41593;BMP180;28026;48.562;14.440;2023-04-25T00:42:24;93043.00;;;13.90
41593;BMP180;28026;48.562;14.440;2023-04-25T00:44:55;93048.00;;;13.90
41593;BMP180;28026;48.562;14.440;2023-04-25T00:47:27;93049.00;;;13.90
41593;BMP180;28026;48.562;14.440;2023-04-25T00:49:59;93042.00;;;13.90
41593;BMP180;28026;48.562;14.440;2023-04-25T00:52:30;93043.00;;;13.90
41593;BMP180;28026;48.562;14.440;2023-04-25T00:55:00;93038.00;;;13.90
41593;BMP180;28026;48.562;14.440;2023-04-25T00:57:31;93038.00;;;13.90
41593;BMP180;28026;48.562;14.440;2023-04-25T01:00:04;93037.00;;;13.90
41593;BMP180;28026;48.562;14.440;2023-04-25T01:02:37;93037.00;;;13.90
41593;BMP180;28026;48.562;14.440;2023-04-25T01:05:08;93035.00;;;13.90
41593;BMP180;28026;48.562;14.440;2023-04-25T01:07:39;93037.00;;;13.90
41593;BMP180;28026;48.562;14.440;2023-04-25T01:10:11;93035.00;;;13.90
41593;BMP180;28026;48.562;14.440;2023-04-25T01:12:41;93040.00;;;13.90
41593;BMP180;28026;48.562;14.440;2023-04-25T01:15:12;93037.00;;;13.90
41593;BMP180;28026;48.562;14.440;2023-04-25T01:17:43;93031.00;;;13.90
41593;BMP180;28026;48.562;14.440;2023-04-25T01:20:15;93038.00;;;13.90
41593;BMP180;28026;48.562;14.440;2023-04-25T01:22:47;93034.00;;;13.80
41593;BMP180;28026;48.562;14.440;2023-04-25T01:25:18;93030.00;;;13.80
41593;BMP180;28026;48.562;14.440;2023-04-25T01:27:49;93022.00;;;13.80
41593;BMP180;28026;48.562;14.440;2023-04-25T01:30:20;93029.00;;;13.70
41593;BMP180;28026;48.562;14.440;2023-04-25T01:32:53;93018.00;;;13.70
41593;BMP180;28026;48.562;14.440;2023-04-25T01:35:26;93019.00;;;13.70
41593;BMP180;28026;48.562;14.440;2023-04-25T01:37:57;93026.00;;;13.70
41593;BMP180;28026;48.562;14.440;2023-04-25T01:40:29;93016.00;;;13.70
41593;BMP180;28026;48.562;14.440;2023-04-25T01:43:00;93018.00;;;13.60
41593;BMP180;28026;48.562;14.440;2023-04-25T01:45:31;93015.00;;;13.60
41593;BMP180;28026;48.562;14.440;2023-04-25T01:48:03;93015.00;;;13.60
41593;BMP180;28026;48.562;14.440;2023-04-25T01:50:34;93010.00;;;13.60
41593;BMP180;28026;48.562;14.440;2023-04-25T01:53:05;93013.00;;;13.60
41593;BMP180;28026;48.562;14.440;2023-04-25T01:55:37;93012.00;;;13.60
41593;BMP180;28026;48.562;14.440;2023-04-25T01:58:08;92996.00;;;13.60
41593;BMP180;28026;48.562;14.440;2023-04-25T02:00:40;93004.00;;;13.60
41593;BMP180;28026;48.562;14.440;2023-04-25T02:03:11;93007.00;;;13.60
41593;BMP180;28026;48.562;14.440;2023-04-25T02:05:41;93009.00;;;13.60
41593;BMP180;28026;48.562;14.440;2023-04-25T02:08:12;93019.00;;;13.50
41593;BMP180;28026;48.562;14.440;2023-04-25T02:10:44;93012.00;;;13.50
41593;BMP180;28026;48.562;14.440;2023-04-25T02:13:14;92998.00;;;13.50
41593;BMP180;28026;48.562;14.440;2023-04-25T02:15:45;92991.00;;;13.50
41593;BMP180;28026;48.562;14.440;2023-04-25T02:18:16;93002.00;;;13.50
41593;BMP180;28026;48.562;14.440;2023-04-25T02:20:47;93007.00;;;13.60
41593;BMP180;28026;48.562;14.440;2023-04-25T02:23:18;92996.00;;;13.50
41593;BMP180;28026;48.562;14.440;2023-04-25T02:25:49;93000.00;;;13.50
41593;BMP180;28026;48.562;14.440;2023-04-25T02:28:21;93000.00;;;13.50
41593;BMP180;28026;48.562;14.440;2023-04-25T02:30:53;92991.00;;;13.50
41593;BMP180;28026;48.562;14.440;2023-04-25T02:33:24;92988.00;;;13.50
41593;BMP180;28026;48.562;14.440;2023-04-25T02:35:55;92986.00;;;13.50
41593;BMP180;28026;48.562;14.440;2023-04-25T02:38:26;92990.00;;;13.50
41593;BMP180;28026;48.562;14.440;2023-04-25T02:40:56;92982.00;;;13.50
41593;BMP180;28026;48.562;14.440;2023-04-25T02:43:27;92972.00;;;13.50
41593;BMP180;28026;48.562;14.440;2023-04-25T02:45:58;92977.00;;;13.50
41593;BMP180;28026;48.562;14.440;2023-04-25T02:48:29;92977.00;;;13.40
41593;BMP180;28026;48.562;14.440;2023-04-25T02:50:59;92970.00;;;13.30
41593;BMP180;28026;48.562;14.440;2023-04-25T02:53:30;92959.00;;;13.40
41593;BMP180;28026;48.562;14.440;2023-04-25T02:56:01;92953.00;;;13.40
41593;BMP180;28026;48.562;14.440;2023-04-25T02:58:32;92944.00;;;13.40
41593;BMP180;28026;48.562;14.440;2023-04-25T03:01:03;92941.00;;;13.40
41593;BMP180;28026;48.562;14.440;2023-04-25T03:03:34;92936.00;;;13.40
41593;BMP180;28026;48.562;14.440;2023-04-25T03:06:05;92940.00;;;13.40
41593;BMP180;28026;48.562;14.440;2023-04-25T03:08:35;92945.00;;;13.40
41593;BMP180;28026;48.562;14.440;2023-04-25T03:11:06;92946.00;;;13.10
41593;BMP180;28026;48.562;14.440;2023-04-25T03:13:37;92947.00;;;12.90
41593;BMP180;28026;48.562;14.440;2023-04-25T03:16:08;92949.00;;;12.70
41593;BMP180;28026;48.562;14.440;2023-04-25T03:18:38;92951.00;;;12.70
41593;BMP180;28026;48.562;14.440;2023-04-25T03:21:09;92951.00;;;12.70
41593;BMP180;28026;48.562;14.440;2023-04-25T03:23:40;92947.00;;;12.60
41593;BMP180;28026;48.562;14.440;2023-04-25T03:26:11;92945.00;;;12.60
41593;BMP180;28026;48.562;14.440;2023-04-25T03:28:41;92947.00;;;12.60
41593;BMP180;28026;48.562;14.440;2023-04-25T03:31:12;92945.00;;;12.60
41593;BMP180;28026;48.562;14.440;2023-04-25T03:33:43;92943.00;;;12.60
41593;BMP180;28026;48.562;14.440;2023-04-25T03:36:14;92947.00;;;12.60
41593;BMP180;28026;48.562;14.440;2023-04-25T03:38:44;92949.00;;;12.60
41593;BMP180;28026;48.562;14.440;2023-04-25T03:41:15;92936.00;;;12.50
41593;BMP180;28026;48.562;14.440;2023-04-25T03:43:46;92927.00;;;12.50
41593;BMP180;28026;48.562;14.440;2023-04-25T03:46:17;92944.00;;;12.50
41593;BMP180;28026;48.562;14.440;2023-04-25T03:48:47;92941.00;;;12.60
41593;BMP180;28026;48.562;14.440;2023-04-25T03:51:18;92938.00;;;12.60
41593;BMP180;28026;48.562;14.440;2023-04-25T03:53:49;92936.00;;;12.50
41593;BMP180;28026;48.562;14.440;2023-04-25T03:56:20;92942.00;;;12.50
41593;BMP180;28026;48.562;14.440;2023-04-25T03:58:51;92933.00;;;12.50
41593;BMP180;28026;48.562;14.440;2023-04-25T04:01:22;92932.00;;;12.50
41593;BMP180;28026;48.562;14.440;2023-04-25T04:03:52;92945.00;;;12.50
41593;BMP180;28026;48.562;14.440;2023-04-25T04:06:23;92937.00;;;12.50
41593;BMP180;28026;48.562;14.440;2023-04-25T04:08:54;92935.00;;;12.50
41593;BMP180;28026;48.562;14.440;2023-04-25T04:11:25;92947.00;;;12.50
41593;BMP180;28026;48.562;14.440;2023-04-25T04:13:56;92944.00;;;12.50
41593;BMP180;28026;48.562;14.440;2023-04-25T04:16:27;92940.00;;;12.40
41593;BMP180;28026;48.562;14.440;2023-04-25T04:18:58;92948.00;;;12.40
41593;BMP180;28026;48.562;14.440;2023-04-25T04:21:29;92946.00;;;12.50
41593;BMP180;28026;48.562;14.440;2023-04-25T04:24:00;92942.00;;;12.60
41593;BMP180;28026;48.562;14.440;2023-04-25T04:26:32;92950.00;;;12.60
41593;BMP180;28026;48.562;14.440;2023-04-25T04:29:03;92953.00;;;12.70
41593;BMP180;28026;48.562;14.440;2023-04-25T04:31:33;92952.00;;;12.70
41593;BMP180;28026;48.562;14.440;2023-04-25T04:34:04;92954.00;;;12.70
41593;BMP180;28026;48.562;14.440;2023-04-25T04:36:35;92960.00;;;12.70
41593;BMP180;28026;48.562;14.440;2023-04-25T04:39:06;92937.00;;;12.70
41593;BMP180;28026;48.562;14.440;2023-04-25T04:41:36;92939.00;;;12.70
41593;BMP180;28026;48.562;14.440;2023-04-25T04:44:07;92935.00;;;12.70
41593;BMP180;28026;48.562;14.440;2023-04-25T04:46:39;92941.00;;;12.60
41593;BMP180;28026;48.562;14.440;2023-04-25T04:49:11;92937.00;;;12.60
41593;BMP180;28026;48.562;14.440;2023-04-25T04:51:43;92929.00;;;12.60
41593;BMP180;28026;48.562;14.440;2023-04-25T04:54:17;92920.00;;;12.60
41593;BMP180;28026;48.562;14.440;2023-04-25T04:56:48;92939.00;;;12.70
41593;BMP180;28026;48.562;14.440;2023-04-25T04:59:19;92934.00;;;12.70
41593;BMP180;28026;48.562;14.440;2023-04-25T05:01:50;92929.00;;;12.80
41593;BMP180;28026;48.562;14.440;2023-04-25T05:04:20;92936.00;;;12.90
41593;BMP180;28026;48.562;14.440;2023-04-25T05:06:51;92925.00;;;12.90
41593;BMP180;28026;48.562;14.440;2023-04-25T05:09:22;92937.00;;;13.00
41593;BMP180;28026;48.562;14.440;2023-04-25T05:11:56;92932.00;;;13.10
41593;BMP180;28026;48.562;14.440;2023-04-25T05:14:26;92938.00;;;13.10
41593;BMP180;28026;48.562;14.440;2023-04-25T05:16:57;92940.00;;;13.10
41593;BMP180;28026;48.562;14.440;2023-04-25T05:19:28;92941.00;;;13.30
41593;BMP180;28026;48.562;14.440;2023-04-25T05:21:59;92944.00;;;13.40
41593;BMP180;28026;48.562;14.440;2023-04-25T05:24:30;92936.00;;;13.50
41593;BMP180;28026;48.562;14.440;2023-04-25T05:27:01;92945.00;;;13.70
41593;BMP180;28026;48.562;14.440;2023-04-25T05:29:32;92945.00;;;13.90
41593;BMP180;28026;48.562;14.440;2023-04-25T05:32:05;92934.00;;;14.00
41593;BMP180;28026;48.562;14.440;2023-04-25T05:34:35;92927.00;;;14.20
41593;BMP180;28026;48.562;14.440;2023-04-25T05:37:07;92930.00;;;14.40
41593;BMP180;28026;48.562;14.440;2023-04-25T05:39:38;92928.00;;;14.60
41593;BMP180;28026;48.562;14.440;2023-04-25T05:42:08;92923.00;;;14.60
41593;BMP180;28026;48.562;14.440;2023-04-25T05:44:39;92926.00;;;14.60
41593;BMP180;28026;48.562;14.440;2023-04-25T05:47:10;92920.00;;;14.60
41593;BMP180;28026;48.562;14.440;2023-04-25T05:49:41;92927.00;;;14.60
41593;BMP180;28026;48.562;14.440;2023-04-25T05:52:11;92934.00;;;14.60
41593;BMP180;28026;48.562;14.440;2023-04-25T05:54:42;92932.00;;;14.70
41593;BMP180;28026;48.562;14.440;2023-04-25T05:57:21;92930.00;;;14.90
41593;BMP180;28026;48.562;14.440;2023-04-25T05:59:55;92937.00;;;15.10
41593;BMP180;28026;48.562;14.440;2023-04-25T06:02:26;92938.00;;;15.30
41593;BMP180;28026;48.562;14.440;2023-04-25T06:04:57;92941.00;;;15.40
41593;BMP180;28026;48.562;14.440;2023-04-25T06:07:27;92927.00;;;15.50
41593;BMP180;28026;48.562;14.440;2023-04-25T06:09:58;92945.00;;;15.70
41593;BMP180;28026;48.562;14.440;2023-04-25T06:12:31;92931.00;;;15.80
41593;BMP180;28026;48.562;14.440;2023-04-25T06:15:02;92937.00;;;15.70
41593;BMP180;28026;48.562;14.440;2023-04-25T06:17:33;92936.00;;;15.50
41593;BMP180;28026;48.562;14.440;2023-04-25T06:20:04;92942.00;;;15.30
41593;BMP180;28026;48.562;14.440;2023-04-25T06:22:36;92942.00;;;15.00
41593;BMP180;28026;48.562;14.440;2023-04-25T06:25:07;92946.00;;;15.00
41593;BMP180;28026;48.562;14.440;2023-04-25T06:27:38;92948.00;;;14.90
41593;BMP180;28026;48.562;14.440;2023-04-25T06:30:09;92949.00;;;14.60
41593;BMP180;28026;48.562;14.440;2023-04-25T06:32:42;92948.00;;;14.50
41593;BMP180;28026;48.562;14.440;2023-04-25T06:35:13;92944.00;;;14.40
41593;BMP180;28026;48.562;14.440;2023-04-25T06:37:44;92945.00;;;14.20
41593;BMP180;28026;48.562;14.440;2023-04-25T06:40:15;92935.00;;;14.10
41593;BMP180;28026;48.562;14.440;2023-04-25T06:42:47;92933.00;;;14.00
41593;BMP180;28026;48.562;14.440;2023-04-25T06:45:18;92926.00;;;14.10
41593;BMP180;28026;48.562;14.440;2023-04-25T06:47:49;92926.00;;;14.00
41593;BMP180;28026;48.562;14.440;2023-04-25T06:50:20;92924.00;;;14.10
41593;BMP180;28026;48.562;14.440;2023-04-25T06:52:50;92927.00;;;14.20
41593;BMP180;28026;48.562;14.440;2023-04-25T06:55:21;92930.00;;;14.30
41593;BMP180;28026;48.562;14.440;2023-04-25T06:57:52;92930.00;;;14.40
41593;BMP180;28026;48.562;14.440;2023-04-25T07:00:23;92925.00;;;14.50
41593;BMP180;28026;48.562;14.440;2023-04-25T07:02:53;92921.00;;;14.50
41593;BMP180;28026;48.562;14.440;2023-04-25T07:05:24;92920.00;;;14.50
41593;BMP180;28026;48.562;14.440;2023-04-25T07:07:55;92907.00;;;14.70
41593;BMP180;28026;48.562;14.440;2023-04-25T07:10:26;92915.00;;;15.00
41593;BMP180;28026;48.562;14.440;2023-04-25T07:12:56;92911.00;;;15.20
41593;BMP180;28026;48.562;14.440;2023-04-25T07:15:27;92907.00;;;15.40
41593;BMP180;28026;48.562;14.440;2023-04-25T07:17:58;92903.00;;;15.50
41593;BMP180;28026;48.562;14.440;2023-04-25T07:20:28;92906.00;;;15.70
41593;BMP180;28026;48.562;14.440;2023-04-25T07:23:01;92901.00;;;15.80
41593;BMP180;28026;48.562;14.440;2023-04-25T07:25:32;92899.00;;;16.10
41593;BMP180;28026;48.562;14.440;2023-04-25T07:28:03;92899.00;;;16.30
41593;BMP180;28026;48.562;14.440;2023-04-25T07:30:34;92903.00;;;16.50
41593;BMP180;28026;48.562;14.440;2023-04-25T07:33:05;92900.00;;;16.70
41593;BMP180;28026;48.562;14.440;2023-04-25T07:35:36;92889.00;;;16.70
41593;BMP180;28026;48.562;14.440;2023-04-25T07:38:07;92888.00;;;16.50
41593;BMP180;28026;48.562;14.440;2023-04-25T07:40:38;92897.00;;;16.70
41593;BMP180;28026;48.562;14.440;2023-04-25T07:43:09;92886.00;;;17.10
41593;BMP180;28026;48.562;14.440;2023-04-25T07:45:46;92891.00;;;17.50
41593;BMP180;28026;48.562;14.440;2023-04-25T07:48:18;92886.00;;;17.80
41593;BMP180;28026;48.562;14.440;2023-04-25T07:50:49;92894.00;;;18.10
41593;BMP180;28026;48.562;14.440;2023-04-25T07:53:20;92902.00;;;18.20
41593;BMP180;28026;48.562;14.440;2023-04-25T07:55:50;92887.00;;;18.10
41593;BMP180;28026;48.562;14.440;2023-04-25T07:58:21;92891.00;;;18.00
41593;BMP180;28026;48.562;14.440;2023-04-25T08:00:52;92895.00;;;17.70
41593;BMP180;28026;48.562;14.440;2023-04-25T08:03:23;92896.00;;;17.50
41593;BMP180;28026;48.562;14.440;2023-04-25T08:05:54;92891.00;;;17.50
41593;BMP180;28026;48.562;14.440;2023-04-25T08:08:24;92891.00;;;17.50
41593;BMP180;28026;48.562;14.440;2023-04-25T08:10:55;92885.00;;;17.60
41593;BMP180;28026;48.562;14.440;2023-04-25T08:13:26;92887.00;;;17.50
41593;BMP180;28026;48.562;14.440;2023-04-25T08:15:57;92880.00;;;17.40
41593;BMP180;28026;48.562;14.440;2023-04-25T08:18:28;92868.00;;;17.40
41593;BMP180;28026;48.562;14.440;2023-04-25T08:20:58;92875.00;;;17.30
41593;BMP180;28026;48.562;14.440;2023-04-25T08:23:30;92873.00;;;17.30
41593;BMP180;28026;48.562;14.440;2023-04-25T08:26:02;92871.00;;;17.20
41593;BMP180;28026;48.562;14.440;2023-04-25T08:28:33;92874.00;;;17.10
41593;BMP180;28026;48.562;14.440;2023-04-25T08:31:04;92889.00;;;17.00
41593;BMP180;28026;48.562;14.440;2023-04-25T08:33:35;92882.00;;;17.00
41593;BMP180;28026;48.562;14.440;2023-04-25T08:36:06;92885.00;;;17.00
41593;BMP180;28026;48.562;14.440;2023-04-25T08:38:37;92887.00;;;16.90
41593;BMP180;28026;48.562;14.440;2023-04-25T08:41:08;92880.00;;;16.80
41593;BMP180;28026;48.562;14.440;2023-04-25T08:43:42;92883.00;;;16.80
41593;BMP180;28026;48.562;14.440;2023-04-25T08:46:17;92886.00;;;16.80
41593;BMP180;28026;48.562;14.440;2023-04-25T08:48:48;92890.00;;;16.90
41593;BMP180;28026;48.562;14.440;2023-04-25T08:51:25;92886.00;;;17.00
41593;BMP180;28026;48.562;14.440;2023-04-25T08:54:08;92901.00;;;17.20
41593;BMP180;28026;48.562;14.440;2023-04-25T08:56:44;92905.00;;;17.20
41593;BMP180;28026;48.562;14.440;2023-04-25T08:59:18;92891.00;;;17.20
41593;BMP180;28026;48.562;14.440;2023-04-25T09:01:49;92899.00;;;17.10
41593;BMP180;28026;48.562;14.440;2023-04-25T09:04:21;92896.00;;;17.20
41593;BMP180;28026;48.562;14.440;2023-04-25T09:06:52;92898.00;;;17.30
41593;BMP180;28026;48.562;14.440;2023-04-25T09:09:24;92913.00;;;17.10
41593;BMP180;28026;48.562;14.440;2023-04-25T09:11:54;92921.00;;;16.80
41593;BMP180;28026;48.562;14.440;2023-04-25T09:14:26;92933.00;;;16.50
41593;BMP180;28026;48.562;14.440;2023-04-25T09:17:03;92953.00;;;16.10
41593;BMP180;28026;48.562;14.440;2023-04-25T09:19:36;92950.00;;;15.70
41593;BMP180;28026;48.562;14.440;2023-04-25T09:22:10;92961.00;;;15.40
41593;BMP180;28026;48.562;14.440;2023-04-25T09:24:42;92944.00;;;15.10
41593;BMP180;28026;48.562;14.440;2023-04-25T09:27:20;92937.00;;;14.90
41593;BMP180;28026;48.562;14.440;2023-04-25T09:29:59;92936.00;;;14.80
41593;BMP180;28026;48.562;14.440;2023-04-25T09:32:34;92922.00;;;14.90
41593;BMP180;28026;48.562;14.440;2023-04-25T09:35:05;92924.00;;;15.30
41593;BMP180;28026;48.562;14.440;2023-04-25T09:37:36;92930.00;;;15.70
41593;BMP180;28026;48.562;14.440;2023-04-25T09:40:07;92924.00;;;16.00
41593;BMP180;28026;48.562;14.440;2023-04-25T09:42:41;92930.00;;;16.50
41593;BMP180;28026;48.562;14.440;2023-04-25T09:45:12;92934.00;;;16.90
41593;BMP180;28026;48.562;14.440;2023-04-25T09:47:46;92938.00;;;17.30
41593;BMP180;28026;48.562;14.440;2023-04-25T09:50:17;92928.00;;;17.70
41593;BMP180;28026;48.562;14.440;2023-04-25T09:53:05;92938.00;;;18.10
41593;BMP180;28026;48.562;14.440;2023-04-25T09:55:37;92924.00;;;18.30
41593;BMP180;28026;48.562;14.440;2023-04-25T09:58:11;92923.00;;;18.40
41593;BMP180;28026;48.562;14.440;2023-04-25T10:00:42;92921.00;;;18.70
41593;BMP180;28026;48.562;14.440;2023-04-25T10:03:14;92932.00;;;18.90
41593;BMP180;28026;48.562;14.440;2023-04-25T10:05:48;92921.00;;;19.10
41593;BMP180;28026;48.562;14.440;2023-04-25T10:08:20;92915.00;;;19.40
41593;BMP180;28026;48.562;14.440;2023-04-25T10:10:53;92917.00;;;19.50
41593;BMP180;28026;48.562;14.440;2023-04-25T10:13:23;92908.00;;;19.60
41593;BMP180;28026;48.562;14.440;2023-04-25T10:16:00;92912.00;;;19.70
41593;BMP180;28026;48.562;14.440;2023-04-25T10:18:32;92905.00;;;19.80
41593;BMP180;28026;48.562;14.440;2023-04-25T10:21:05;92911.00;;;20.10
41593;BMP180;28026;48.562;14.440;2023-04-25T10:23:37;92909.00;;;20.20
41593;BMP180;28026;48.562;14.440;2023-04-25T10:26:08;92912.00;;;20.00
41593;BMP180;28026;48.562;14.440;2023-04-25T10:28:57;92917.00;;;19.60
41593;BMP180;28026;48.562;14.440;2023-04-25T10:31:30;92923.00;;;19.50
41593;BMP180;28026;48.562;14.440;2023-04-25T10:34:01;92906.00;;;19.60
41593;BMP180;28026;48.562;14.440;2023-04-25T10:36:32;92904.00;;;19.70
41593;BMP180;28026;48.562;14.440;2023-04-25T10:39:05;92898.00;;;19.90
41593;BMP180;28026;48.562;14.440;2023-04-25T10:41:58;92886.00;;;19.80
41593;BMP180;28026;48.562;14.440;2023-04-25T10:44:32;92901.00;;;19.50
41593;BMP180;28026;48.562;14.440;2023-04-25T10:47:06;92901.00;;;19.40
41593;BMP180;28026;48.562;14.440;2023-04-25T10:49:42;92904.00;;;19.40
41593;BMP180;28026;48.562;14.440;2023-04-25T10:52:18;92888.00;;;19.40
41593;BMP180;28026;48.562;14.440;2023-04-25T10:55:02;92894.00;;;19.50
41593;BMP180;28026;48.562;14.440;2023-04-25T10:57:41;92889.00;;;19.50
41593;BMP180;28026;48.562;14.440;2023-04-25T11:00:19;92898.00;;;19.50
41593;BMP180;28026;48.562;14.440;2023-04-25T11:02:57;92889.00;;;19.70
41593;BMP180;28026;48.562;14.440;2023-04-25T11:05:32;92896.00;;;19.90
41593;BMP180;28026;48.562;14.440;2023-04-25T11:08:12;92889.00;;;20.10
41593;BMP180;28026;48.562;14.440;2023-04-25T11:10:44;92881.00;;;20.10
41593;BMP180;28026;48.562;14.440;2023-04-25T11:13:15;92879.00;;;20.00
41593;BMP180;28026;48.562;14.440;2023-04-25T11:15:51;92889.00;;;20.00
41593;BMP180;28026;48.562;14.440;2023-04-25T11:18:26;92894.00;;;20.00
41593;BMP180;28026;48.562;14.440;2023-04-25T11:20:57;92895.00;;;19.70
41593;BMP180;28026;48.562;14.440;2023-04-25T11:23:30;92884.00;;;19.50
41593;BMP180;28026;48.562;14.440;2023-04-25T11:26:00;92894.00;;;19.30
41593;BMP180;28026;48.562;14.440;2023-04-25T11:28:31;92904.00;;;18.90
41593;BMP180;28026;48.562;14.440;2023-04-25T11:31:02;92913.00;;;18.50
41593;BMP180;28026;48.562;14.440;2023-04-25T11:33:35;92910.00;;;18.00
41593;BMP180;28026;48.562;14.440;2023-04-25T11:36:06;92902.00;;;18.00
41593;BMP180;28026;48.562;14.440;2023-04-25T11:38:37;92913.00;;;18.10
41593;BMP180;28026;48.562;14.440;2023-04-25T11:41:08;92904.00;;;18.30
41593;BMP180;28026;48.562;14.440;2023-04-25T11:43:39;92912.00;;;18.40
41593;BMP180;28026;48.562;14.440;2023-04-25T11:46:10;92911.00;;;18.50
41593;BMP180;28026;48.562;14.440;2023-04-25T11:48:42;92917.00;;;18.40
41593;BMP180;28026;48.562;14.440;2023-04-25T11:51:14;92910.00;;;18.40
41593;BMP180;28026;48.562;14.440;2023-04-25T11:53:45;92912.00;;;18.40
41593;BMP180;28026;48.562;14.440;2023-04-25T11:56:16;92904.00;;;18.30
41593;BMP180;28026;48.562;14.440;2023-04-25T11:59:05;92903.00;;;18.50
41593;BMP180;28026;48.562;14.440;2023-04-25T12:01:38;92887.00;;;18.60
41593;BMP180;28026;48.562;14.440;2023-04-25T12:04:18;92903.00;;;18.70
41593;BMP180;28026;48.562;14.440;2023-04-25T12:06:54;92907.00;;;18.80
41593;BMP180;28026;48.562;14.440;2023-04-25T12:09:32;92905.00;;;19.00
41593;BMP180;28026;48.562;14.440;2023-04-25T12:12:04;92906.00;;;19.20
41593;BMP180;28026;48.562;14.440;2023-04-25T12:14:36;92907.00;;;19.10
41593;BMP180;28026;48.562;14.440;2023-04-25T12:17:06;92908.00;;;18.90
41593;BMP180;28026;48.562;14.440;2023-04-25T12:19:38;92907.00;;;18.80
41593;BMP180;28026;48.562;14.440;2023-04-25T12:22:21;92903.00;;;18.90
41593;BMP180;28026;48.562;14.440;2023-04-25T12:24:53;92906.00;;;19.20
41593;BMP180;28026;48.562;14.440;2023-04-25T12:27:25;92896.00;;;19.20
41593;BMP180;28026;48.562;14.440;2023-04-25T12:29:57;92896.00;;;19.10
41593;BMP180;28026;48.562;14.440;2023-04-25T12:32:28;92900.00;;;19.00
41593;BMP180;28026;48.562;14.440;2023-04-25T12:34:59;92889.00;;;19.00
41593;BMP180;28026;48.562;14.440;2023-04-25T12:37:30;92909.00;;;18.90
41593;BMP180;28026;48.562;14.440;2023-04-25T12:40:01;92909.00;;;18.80
41593;BMP180;28026;48.562;14.440;2023-04-25T12:42:34;92917.00;;;18.70
41593;BMP180;28026;48.562;14.440;2023-04-25T12:45:05;92922.00;;;18.70
41593;BMP180;28026;48.562;14.440;2023-04-25T12:47:36;92917.00;;;18.60
41593;BMP180;28026;48.562;14.440;2023-04-25T12:50:07;92916.00;;;18.60
41593;BMP180;28026;48.562;14.440;2023-04-25T12:52:38;92905.00;;;18.80
41593;BMP180;28026;48.562;14.440;2023-04-25T12:55:09;92906.00;;;19.10
41593;BMP180;28026;48.562;14.440;2023-04-25T12:57:40;92894.00;;;19.60
41593;BMP180;28026;48.562;14.440;2023-04-25T13:00:11;92902.00;;;20.10
41593;BMP180;28026;48.562;14.440;2023-04-25T13:02:45;92903.00;;;20.60
41593;BMP180;28026;48.562;14.440;2023-04-25T13:05:19;92898.00;;;20.90
41593;BMP180;28026;48.562;14.440;2023-04-25T13:07:50;92905.00;;;21.20
41593;BMP180;28026;48.562;14.440;2023-04-25T13:10:21;92900.00;;;20.90
41593;BMP180;28026;48.562;14.440;2023-04-25T13:12:52;92908.00;;;20.60
41593;BMP180;28026;48.562;14.440;2023-04-25T13:15:23;92910.00;;;20.10
41593;BMP180;28026;48.562;14.440;2023-04-25T13:17:54;92899.00;;;20.10
41593;BMP180;28026;48.562;14.440;2023-04-25T13:20:24;92900.00;;;20.10
41593;BMP180;28026;48.562;14.440;2023-04-25T13:22:55;92905.00;;;20.20
41593;BMP180;28026;48.562;14.440;2023-04-25T13:25:26;92902.00;;;20.20
41593;BMP180;28026;48.562;14.440;2023-04-25T13:27:57;92912.00;;;20.50
41593;BMP180;28026;48.562;14.440;2023-04-25T13:30:27;92901.00;;;20.80
41593;BMP180;28026;48.562;14.440;2023-04-25T13:32:58;92913.00;;;21.20
41593;BMP180;28026;48.562;14.440;2023-04-25T13:35:34;92914.00;;;21.10
41593;BMP180;28026;48.562;14.440;2023-04-25T13:38:06;92910.00;;;20.90
41593;BMP180;28026;48.562;14.440;2023-04-25T13:40:36;92909.00;;;20.60
41593;BMP180;28026;48.562;14.440;2023-04-25T13:43:07;92916.00;;;20.80
41593;BMP180;28026;48.562;14.440;2023-04-25T13:45:39;92917.00;;;21.00
41593;BMP180;28026;48.562;14.440;2023-04-25T13:48:10;92936.00;;;20.90
41593;BMP180;28026;48.562;14.440;2023-04-25T13:50:40;92936.00;;;20.50
41593;BMP180;28026;48.562;14.440;2023-04-25T13:53:11;92970.00;;;20.10
41593;BMP180;28026;48.562;14.440;2023-04-25T13:55:42;92987.00;;;19.60
41593;BMP180;28026;48.562;14.440;2023-04-25T13:58:13;92991.00;;;19.10
41593;BMP180;28026;48.562;14.440;2023-04-25T14:00:44;93016.00;;;18.70
41593;BMP180;28026;48.562;14.440;2023-04-25T14:03:16;93013.00;;;18.40
41593;BMP180;28026;48.562;14.440;2023-04-25T14:05:47;93017.00;;;18.10
41593;BMP180;28026;48.562;14.440;2023-04-25T14:08:18;93015.00;;;17.90
41593;BMP180;28026;48.562;14.440;2023-04-25T14:10:49;93022.00;;;17.60
41593;BMP180;28026;48.562;14.440;2023-04-25T14:13:19;93032.00;;;17.40
41593;BMP180;28026;48.562;14.440;2023-04-25T14:15:50;93026.00;;;17.20
41593;BMP180;28026;48.562;14.440;2023-04-25T14:18:21;93039.00;;;17.00
41593;BMP180;28026;48.562;14.440;2023-04-25T14:20:52;93036.00;;;17.00
41593;BMP180;28026;48.562;14.440;2023-04-25T14:23:23;93031.00;;;16.90